Weather reports worldwide

Advertisment
Inverness/Dalcross, United Kingdom (3059): temperature & dewpoint: 18.05.2018 07:00:00 - 24.05.2018 07:00:00 (BST)Inverness/Dalcross, United Kingdom (3059): wind speed: 18.05.2018 07:00:00 - 24.05.2018 07:00:00 (BST)Inverness/Dalcross, United Kingdom (3059): wind direction: 18.05.2018 07:00:00 - 24.05.2018 07:00:00 (BST)Inverness/Dalcross, United Kingdom (3059): visibility: 18.05.2018 07:00:00 - 24.05.2018 07:00:00 (BST)
Date & Time tt [°C] td [°C] ff [km/h] ff [kn] dd vv [km]
24.05.2018 07:00:00 9,0 9,0 4 2 - 1,3
24.05.2018 06:00:00 8,0 8,0 2 1 - 1,2
24.05.2018 05:00:00 8,0 8,0 4 2 SE 2,0
24.05.2018 04:00:00 8,0 8,0 0 0 N 8
24.05.2018 03:00:00 6,0 6,0 0 0 N 5
24.05.2018 02:00:00 5,0 5,0 0 0 N 3,9
24.05.2018 01:00:00 5,0 5,0 0 0 N 7
24.05.2018 00:00:00 6,0 6,0 4 2 SSW 4,6
23.05.2018 23:00:00 8,0 8,0 4 2 E 9
23.05.2018 22:00:00 10,0 10,0 4 2 ENE 10
23.05.2018 21:00:00 11,0 10,0 8 4 NNE 10
23.05.2018 20:00:00 12,0 11,0 13 7 NE 10
23.05.2018 19:00:00 13,0 11,0 16 9 NE 10
23.05.2018 18:00:00 14,0 11,0 18 10 NE 10
23.05.2018 17:00:00 14,0 11,0 22 12 NE 10
23.05.2018 16:00:00 14,0 11,0 24 13 NNE 10
23.05.2018 15:00:00 15,0 11,0 18 10 NE 10
23.05.2018 14:00:00 16,0 11,0 11 6 NE 10
23.05.2018 13:00:00 15,0 10,0 11 6 NNE 10
23.05.2018 12:00:00 15,0 9,0 4 2 - 10
23.05.2018 11:00:00 13,0 9,0 5 3 - 10
23.05.2018 10:00:00 12,0 8,0 4 2 - 10
23.05.2018 09:00:00 11,0 8,0 2 1 - 10
23.05.2018 08:00:00 9,0 8,0 2 1 NW 10
23.05.2018 07:00:00 8,0 8,0 2 1 - 10
23.05.2018 06:00:00 5,0 5,0 2 1 SSW 10
23.05.2018 05:00:00 6,0 6,0 2 1 E 10
23.05.2018 04:00:00 7,0 7,0 4 2 NE 10
23.05.2018 03:00:00 8,0 8,0 2 1 E 10
23.05.2018 02:00:00 8,0 8,0 5 3 E 10
23.05.2018 01:00:00 8,0 8,0 5 3 ENE 10
23.05.2018 00:00:00 9,0 9,0 8 4 E 10
22.05.2018 23:00:00 9,0 9,0 8 4 ENE 10
22.05.2018 22:00:00 9,0 9,0 8 4 ENE 10
22.05.2018 21:00:00 9,0 8,0 9 5 NE 10
22.05.2018 20:00:00 9,0 8,0 9 5 ENE 10
22.05.2018 19:00:00 10,0 8,0 13 7 E 10
22.05.2018 18:00:00 10,0 8,0 16 9 ENE 10
22.05.2018 17:00:00 10,0 8,0 22 12 NE 10
22.05.2018 16:00:00 9,0 8,0 22 12 NE 10
22.05.2018 15:00:00 10,0 8,0 26 14 NE 10
22.05.2018 14:00:00 9,0 8,0 24 13 NE 10
22.05.2018 13:00:00 9,0 8,0 26 14 ENE 10
22.05.2018 12:00:00 9,0 8,0 24 13 NE 10
22.05.2018 11:00:00 9,0 8,0 22 12 NE 10
22.05.2018 10:00:00 9,0 8,0 21 11 NE 10
22.05.2018 09:00:00 8,0 8,0 21 11 NE 10
22.05.2018 08:00:00 8,0 7,0 18 10 NE 10
22.05.2018 07:00:00 7,0 7,0 16 9 NE 10
22.05.2018 06:00:00 7,0 7,0 8 4 NNE 10
22.05.2018 05:00:00 7,0 7,0 11 6 NNE 10
22.05.2018 04:00:00 6,0 6,0 11 6 NNE 10
22.05.2018 03:00:00 6,0 6,0 9 5 N 10
22.05.2018 02:00:00 7,0 7,0 9 5 NNE 10
22.05.2018 01:00:00 6,0 6,0 9 5 N 10
22.05.2018 00:00:00 6,0 6,0 8 4 N 10
21.05.2018 23:00:00 6,0 6,0 4 2 NNE 10
21.05.2018 22:00:00 7,0 7,0 13 7 NNE 4,5
21.05.2018 21:00:00 7,0 7,0 16 9 N 6
21.05.2018 20:00:00 7,0 7,0 16 9 NNE 4,5
21.05.2018 19:00:00 8,0 8,0 15 8 NNE 3,5
21.05.2018 18:00:00 8,0 8,0 15 8 NNE 2,5
21.05.2018 17:00:00 9,0 9,0 16 9 N 2,5
21.05.2018 16:00:00 10,0 10,0 15 8 N 3,0
21.05.2018 15:00:00 11,0 11,0 11 6 N 2,0
21.05.2018 14:00:00 11,0 11,0 5 3 NNE 4,0
21.05.2018 13:00:00 12,0 12,0 5 3 - 4,5
21.05.2018 12:00:00 13,0 13,0 5 3 - 8
21.05.2018 11:00:00 14,0 13,0 9 5 WNW 10
21.05.2018 10:00:00 14,0 14,0 5 3 NNW 10
21.05.2018 09:00:00 13,0 13,0 2 1 N 10
21.05.2018 08:00:00 13,0 13,0 4 2 N 10
21.05.2018 07:00:00 13,0 13,0 0 0 N 8
21.05.2018 06:00:00 12,0 12,0 0 0 N 10
21.05.2018 05:00:00 12,0 12,0 2 1 - 10
21.05.2018 04:00:00 12,0 12,0 11 6 SSW 6
21.05.2018 03:00:00 12,0 12,0 2 1 SW 6
21.05.2018 02:00:00 13,0 12,0 5 3 SW 7
21.05.2018 01:00:00 14,0 11,0 0 0 N 10
21.05.2018 00:00:00 14,0 12,0 2 1 - 10
20.05.2018 23:00:00 14,0 11,0 4 2 - 10
20.05.2018 22:00:00 14,0 11,0 9 5 WSW 10
20.05.2018 21:00:00 16,0 11,0 11 6 SW 10
20.05.2018 20:00:00 15,0 12,0 13 7 WNW 10
20.05.2018 19:00:00 16,0 12,0 16 9 WSW 10
20.05.2018 18:00:00 17,0 12,0 15 8 WSW 10
20.05.2018 17:00:00 17,0 12,0 22 12 WSW 10
20.05.2018 16:00:00 17,0 11,0 29 16 SW 10
20.05.2018 15:00:00 18,0 11,0 37 20 SW 10
20.05.2018 14:00:00 18,0 11,0 24 13 WSW 10
20.05.2018 13:00:00 19,0 11,0 41 22 SW 10
20.05.2018 12:00:00 18,0 10,0 39 21 SSW 10
20.05.2018 11:00:00 17,0 10,0 44 24 WSW 10
20.05.2018 10:00:00 16,0 9,0 24 13 W 10
20.05.2018 09:00:00 17,0 9,0 16 9 W 10
20.05.2018 08:00:00 14,0 8,0 18 10 WSW 10
20.05.2018 07:00:00 14,0 8,0 21 11 SW 10
20.05.2018 06:00:00 14,0 7,0 22 12 SSW 10
20.05.2018 05:00:00 14,0 8,0 26 14 SW 10
20.05.2018 04:00:00 14,0 7,0 18 10 WSW 10
20.05.2018 03:00:00 15,0 7,0 9 5 SW 10
20.05.2018 02:00:00 15,0 7,0 15 8 SSW 10
20.05.2018 01:00:00 15,0 6,0 21 11 S 10
20.05.2018 00:00:00 14,0 6,0 5 3 - 10
19.05.2018 23:00:00 15,0 5,0 16 9 SSW 10
19.05.2018 22:00:00 16,0 5,0 18 10 S 10
19.05.2018 21:00:00 17,0 6,0 15 8 SSW 10
19.05.2018 20:00:00 18,0 6,0 22 12 SSW 10
19.05.2018 19:00:00 19,0 7,0 24 13 SSW 10
19.05.2018 18:00:00 20,0 8,0 31 17 SW 10
19.05.2018 17:00:00 21,0 8,0 35 19 SW 10
19.05.2018 16:00:00 22,0 7,0 28 15 SSW 10
19.05.2018 15:00:00 21,0 8,0 24 13 SW 10
19.05.2018 14:00:00 21,0 9,0 24 13 WSW 10
19.05.2018 13:00:00 22,0 10,0 26 14 SW 10
19.05.2018 12:00:00 18,0 9,0 21 11 W 10
19.05.2018 11:00:00 17,0 9,0 16 9 WSW 10
19.05.2018 10:00:00 17,0 8,0 26 14 SW 10
19.05.2018 09:00:00 15,0 10,0 8 4 WNW 10
19.05.2018 08:00:00 15,0 9,0 5 3 SE 10
19.05.2018 07:00:00 13,0 8,0 8 4 S 10
19.05.2018 06:00:00 8,0 7,0 2 1 - 10
19.05.2018 05:00:00 9,0 7,0 5 3 SSW 10
19.05.2018 04:00:00 11,0 7,0 8 4 SW 10
19.05.2018 03:00:00 11,0 8,0 16 9 SW 10
19.05.2018 02:00:00 9,0 8,0 4 2 SSW 10
19.05.2018 01:00:00 11,0 7,0 2 1 S 10
19.05.2018 00:00:00 11,0 8,0 4 2 S 10
18.05.2018 23:00:00 9,0 7,0 8 4 WSW 10
18.05.2018 22:00:00 13,0 9,0 5 3 S 10
18.05.2018 21:00:00 15,0 8,0 16 9 WSW 10
18.05.2018 20:00:00 15,0 8,0 11 6 WSW 10
18.05.2018 19:00:00 16,0 9,0 13 7 W 10
18.05.2018 18:00:00 17,0 7,0 21 11 WSW 10
18.05.2018 17:00:00 18,0 6,0 22 12 WSW 10
18.05.2018 16:00:00 19,0 7,0 22 12 SW 10
18.05.2018 15:00:00 19,0 5,0 24 13 SW 10
18.05.2018 14:00:00 19,0 4,0 22 12 SW 10
18.05.2018 13:00:00 18,0 4,0 24 13 SW 10
18.05.2018 12:00:00 16,0 4,0 24 13 SW 10
18.05.2018 11:00:00 15,0 6,0 21 11 SW 10
18.05.2018 10:00:00 13,0 7,0 5 3 - 10
18.05.2018 09:00:00 11,0 7,0 0 0 N 10
18.05.2018 08:00:00 9,0 7,0 0 0 N 10
18.05.2018 07:00:00 8,0 8,0 0 0 N 10

tt = temperature
td = dewpoint
ff = wind speed
dd = wind direction
vv = visibility

Next stations